createdAt,value
2023-04-29T00:01:04.231Z,12.20
2023-04-29T00:06:06.195Z,12.10
2023-04-29T00:11:08.102Z,11.90
2023-04-29T00:16:13.838Z,11.80
2023-04-29T00:21:15.889Z,11.70
2023-04-29T00:26:17.863Z,11.70
2023-04-29T00:31:19.647Z,11.60
2023-04-29T00:36:21.454Z,11.60
2023-04-29T00:41:24.241Z,11.60
2023-04-29T00:46:26.191Z,11.60
2023-04-29T00:51:28.239Z,11.60
2023-04-29T00:56:34.078Z,11.50
2023-04-29T01:01:36.565Z,11.50
2023-04-29T01:06:57.340Z,11.40
2023-04-29T01:12:15.299Z,11.40
2023-04-29T01:17:20.859Z,11.50
2023-04-29T01:22:23.000Z,11.50
2023-04-29T01:27:42.431Z,11.40
2023-04-29T01:32:56.610Z,11.30
2023-04-29T01:38:23.246Z,11.30
2023-04-29T01:43:28.940Z,11.30
2023-04-29T01:48:31.563Z,11.30
2023-04-29T01:53:33.573Z,11.10
2023-04-29T01:58:35.679Z,11.10
2023-04-29T02:03:37.651Z,11.10
2023-04-29T02:08:39.615Z,11.00
2023-04-29T02:13:41.917Z,11.10
2023-04-29T02:18:43.814Z,11.20
2023-04-29T02:23:45.985Z,11.00
2023-04-29T02:28:47.736Z,11.00
2023-04-29T02:33:49.866Z,11.00
2023-04-29T02:38:54.044Z,11.00
2023-04-29T02:43:55.829Z,10.90
2023-04-29T02:48:57.571Z,11.00
2023-04-29T02:53:59.322Z,10.80
2023-04-29T02:59:01.286Z,10.80
2023-04-29T03:04:03.210Z,10.80
2023-04-29T03:09:05.121Z,10.90
2023-04-29T03:14:07.002Z,10.90
2023-04-29T03:19:09.101Z,10.90
2023-04-29T03:24:10.889Z,10.90
2023-04-29T03:29:12.649Z,10.90
2023-04-29T03:34:15.335Z,10.80
2023-04-29T03:39:18.092Z,10.70
2023-04-29T03:44:19.917Z,10.80
2023-04-29T03:49:21.674Z,10.70
2023-04-29T03:54:23.768Z,10.80
2023-04-29T03:59:25.646Z,10.80
2023-04-29T04:04:27.559Z,10.80
2023-04-29T04:09:29.543Z,10.80
2023-04-29T04:14:31.770Z,10.80
2023-04-29T04:19:33.732Z,10.70
2023-04-29T04:24:35.539Z,10.70
2023-04-29T04:29:37.302Z,10.60
2023-04-29T04:34:42.326Z,10.80
2023-04-29T04:39:44.403Z,10.70
2023-04-29T04:44:46.614Z,10.60
2023-04-29T04:49:49.919Z,10.70
2023-04-29T04:54:51.768Z,10.70
2023-04-29T04:59:53.838Z,10.70
2023-04-29T05:04:56.177Z,10.70
2023-04-29T05:09:58.205Z,10.70
2023-04-29T05:15:00.277Z,10.70
2023-04-29T05:20:02.149Z,10.70
2023-04-29T05:25:04.028Z,10.70
2023-04-29T05:30:06.361Z,10.70
2023-04-29T05:35:08.694Z,10.70
2023-04-29T05:40:10.718Z,10.60
2023-04-29T05:45:12.648Z,10.60
2023-04-29T05:50:14.380Z,10.70
2023-04-29T05:55:16.260Z,10.60
2023-04-29T06:00:18.102Z,10.60
2023-04-29T06:05:20.493Z,10.50
2023-04-29T06:10:22.566Z,10.50
2023-04-29T06:15:24.434Z,10.30
2023-04-29T06:20:26.398Z,10.30
2023-04-29T06:25:28.171Z,10.40
2023-04-29T06:30:30.043Z,10.40
2023-04-29T06:35:31.821Z,10.50
2023-04-29T06:40:33.673Z,10.50
2023-04-29T06:45:35.507Z,10.50
2023-04-29T06:50:37.296Z,10.50
2023-04-29T06:55:39.067Z,10.60
2023-04-29T07:00:44.454Z,10.70
2023-04-29T07:05:46.480Z,10.60
2023-04-29T07:10:55.916Z,10.50
2023-04-29T07:15:57.755Z,10.40
2023-04-29T07:21:02.676Z,10.30
2023-04-29T07:26:16.022Z,10.40
2023-04-29T07:31:17.877Z,10.40
2023-04-29T07:36:19.780Z,10.40
2023-04-29T07:41:22.520Z,10.50
2023-04-29T07:46:24.375Z,10.60
2023-04-29T07:51:29.202Z,10.70
2023-04-29T07:56:31.507Z,10.80
2023-04-29T08:01:33.550Z,10.90
2023-04-29T08:06:35.876Z,10.80
2023-04-29T08:11:37.777Z,11.00
2023-04-29T08:16:39.626Z,11.00
2023-04-29T08:21:41.727Z,11.10
2023-04-29T08:26:43.573Z,11.10
2023-04-29T08:31:45.658Z,11.20
2023-04-29T08:36:47.442Z,11.20
2023-04-29T08:41:51.478Z,11.10
2023-04-29T08:46:53.797Z,11.20
2023-04-29T08:51:55.837Z,11.30
2023-04-29T08:56:59.292Z,11.20
2023-04-29T09:02:01.062Z,11.20
2023-04-29T09:07:04.222Z,11.20
2023-04-29T09:12:06.514Z,11.40
2023-04-29T09:17:08.357Z,11.60
2023-04-29T09:22:11.179Z,11.70
2023-04-29T09:27:27.615Z,12.10
2023-04-29T09:32:29.493Z,12.30
2023-04-29T09:37:31.613Z,12.30
2023-04-29T09:42:43.410Z,12.10
2023-04-29T09:47:45.749Z,12.20
2023-04-29T09:52:48.125Z,12.40
2023-04-29T09:57:49.960Z,12.50
2023-04-29T10:02:54.611Z,12.90
2023-04-29T10:07:59.340Z,12.80
2023-04-29T10:13:01.808Z,12.80
2023-04-29T10:18:14.378Z,13.00
2023-04-29T10:23:17.752Z,13.00
2023-04-29T10:28:21.656Z,12.90
2023-04-29T10:33:23.711Z,12.70
2023-04-29T10:38:37.486Z,12.90
2023-04-29T10:43:39.414Z,13.00
2023-04-29T10:48:41.201Z,13.10
2023-04-29T10:54:01.869Z,13.20
2023-04-29T10:59:03.742Z,13.30
2023-04-29T11:04:05.829Z,13.30
2023-04-29T11:09:18.560Z,13.30
2023-04-29T11:14:40.785Z,13.50
2023-04-29T11:19:47.548Z,13.50
2023-04-29T11:24:53.691Z,13.40
2023-04-29T11:29:58.495Z,13.60
2023-04-29T11:35:17.528Z,13.70
2023-04-29T11:40:19.484Z,14.00
2023-04-29T11:45:21.328Z,14.40
2023-04-29T11:50:23.498Z,14.40
2023-04-29T11:55:25.964Z,14.20
2023-04-29T12:00:27.809Z,14.30
2023-04-29T12:05:30.220Z,14.20
2023-04-29T12:10:32.708Z,14.50
2023-04-29T12:15:35.762Z,14.60
2023-04-29T12:20:39.712Z,14.70
2023-04-29T12:25:42.587Z,15.00
2023-04-29T12:30:46.003Z,15.00
2023-04-29T12:35:50.305Z,14.90
2023-04-29T12:40:52.832Z,14.50
2023-04-29T12:46:00.504Z,14.30
2023-04-29T12:51:02.889Z,14.20
2023-04-29T12:56:06.020Z,14.30
2023-04-29T13:01:07.892Z,14.40
2023-04-29T13:06:09.917Z,14.60
2023-04-29T13:11:13.640Z,14.70
2023-04-29T13:16:15.885Z,14.80
2023-04-29T13:21:17.692Z,14.60
2023-04-29T13:26:19.588Z,14.50
2023-04-29T13:31:21.441Z,14.60
2023-04-29T13:36:23.289Z,14.40
2023-04-29T13:41:26.530Z,14.50
2023-04-29T13:46:31.438Z,14.50
2023-04-29T13:52:06.682Z,14.70
2023-04-29T13:57:44.269Z,14.90
2023-04-29T14:02:25.003Z,15.20
2023-04-29T14:07:27.948Z,15.20
2023-04-29T14:12:29.701Z,15.10
2023-04-29T14:17:31.895Z,15.20
2023-04-29T14:22:33.812Z,15.10
2023-04-29T14:27:36.981Z,15.00
2023-04-29T14:32:38.784Z,14.90
2023-04-29T14:37:40.606Z,14.80
2023-04-29T14:42:42.427Z,14.60
2023-04-29T14:47:44.430Z,14.70
2023-04-29T14:52:46.541Z,14.80
2023-04-29T14:57:48.829Z,14.90
2023-04-29T15:02:50.871Z,15.10
2023-04-29T15:07:52.729Z,15.30
2023-04-29T15:12:54.912Z,15.50
2023-04-29T15:17:56.979Z,15.40
2023-04-29T15:22:59.023Z,15.50
2023-04-29T15:28:02.035Z,15.60
2023-04-29T15:33:04.804Z,15.70
2023-04-29T15:38:07.890Z,15.60
2023-04-29T15:43:09.762Z,15.60
2023-04-29T15:48:11.562Z,15.70
2023-04-29T15:53:13.365Z,15.60
2023-04-29T15:58:15.348Z,15.60
2023-04-29T16:03:17.288Z,15.40
2023-04-29T16:08:19.147Z,15.30
2023-04-29T16:13:21.038Z,15.10
2023-04-29T16:18:23.120Z,15.20
2023-04-29T16:23:24.955Z,15.30
2023-04-29T16:28:26.836Z,15.30
2023-04-29T16:33:29.311Z,15.30
2023-04-29T16:38:31.947Z,15.30
2023-04-29T16:43:34.101Z,15.30
2023-04-29T16:48:36.074Z,15.30
2023-04-29T16:53:37.842Z,15.40
2023-04-29T16:58:39.597Z,15.20
2023-04-29T17:03:41.703Z,15.30
2023-04-29T17:08:44.652Z,15.40
2023-04-29T17:13:46.784Z,15.30
2023-04-29T17:18:48.784Z,15.30
2023-04-29T17:23:51.667Z,15.30
2023-04-29T17:28:53.572Z,15.30
2023-04-29T17:34:04.929Z,15.10
2023-04-29T17:39:09.936Z,15.10
2023-04-29T17:44:11.865Z,15.00
2023-04-29T17:49:14.583Z,15.00
2023-04-29T17:54:16.446Z,14.90
2023-04-29T17:59:18.222Z,14.80
2023-04-29T18:04:20.241Z,14.80
2023-04-29T18:09:22.189Z,14.70
2023-04-29T18:14:24.699Z,14.70
2023-04-29T18:19:27.061Z,14.60
2023-04-29T18:24:29.357Z,14.60
2023-04-29T18:29:31.178Z,14.40
2023-04-29T18:34:33.017Z,14.30
2023-04-29T18:39:35.273Z,14.10
2023-04-29T18:44:37.316Z,13.90
2023-04-29T18:49:39.157Z,13.70
2023-04-29T18:54:41.385Z,13.50
2023-04-29T18:59:43.142Z,13.40
2023-04-29T19:04:45.832Z,13.30
2023-04-29T19:09:47.730Z,13.10
2023-04-29T19:14:49.839Z,12.90
2023-04-29T19:19:51.759Z,12.70
2023-04-29T19:24:53.849Z,12.60
2023-04-29T19:29:56.023Z,12.50
2023-04-29T19:34:57.942Z,12.30
2023-04-29T19:39:59.820Z,12.20
2023-04-29T19:45:01.739Z,12.20
2023-04-29T19:50:04.445Z,12.20
2023-04-29T19:55:08.931Z,12.00
2023-04-29T20:00:13.559Z,11.80
2023-04-29T20:05:15.344Z,11.70
2023-04-29T20:10:17.493Z,11.70
2023-04-29T20:15:19.434Z,11.70
2023-04-29T20:20:21.340Z,11.70
2023-04-29T20:25:24.254Z,11.50
2023-04-29T20:30:26.733Z,11.50
2023-04-29T20:35:29.727Z,11.50
2023-04-29T20:40:32.657Z,11.40
2023-04-29T20:45:36.851Z,11.30
2023-04-29T20:50:38.754Z,11.30
2023-04-29T20:55:40.577Z,11.20
2023-04-29T21:00:42.750Z,11.10
2023-04-29T21:05:44.896Z,11.10
2023-04-29T21:10:46.888Z,11.10
2023-04-29T21:15:48.763Z,11.00
2023-04-29T21:20:51.398Z,10.90
2023-04-29T21:25:53.230Z,10.80
2023-04-29T21:30:55.221Z,10.70
2023-04-29T21:35:57.188Z,10.70
2023-04-29T21:41:00.436Z,10.50
2023-04-29T21:46:02.344Z,10.70
2023-04-29T21:51:06.018Z,10.70
2023-04-29T21:56:08.131Z,10.60
2023-04-29T22:01:29.177Z,10.60
2023-04-29T22:06:31.574Z,10.60
2023-04-29T22:11:33.713Z,10.60
2023-04-29T22:16:38.260Z,10.60
2023-04-29T22:21:42.958Z,10.60
2023-04-29T22:26:44.824Z,10.50
2023-04-29T22:31:46.819Z,10.50
2023-04-29T22:36:48.590Z,10.40
2023-04-29T22:41:50.603Z,10.30
2023-04-29T22:46:52.383Z,10.20
2023-04-29T22:51:54.139Z,10.10
2023-04-29T22:56:55.917Z,10.00
2023-04-29T23:01:57.856Z,10.00
2023-04-29T23:06:59.753Z,9.90
2023-04-29T23:12:02.535Z,9.90
2023-04-29T23:17:04.317Z,10.00
2023-04-29T23:22:07.401Z,10.00
2023-04-29T23:27:09.184Z,10.10
2023-04-29T23:32:10.978Z,10.20
2023-04-29T23:37:12.756Z,10.20
2023-04-29T23:42:14.543Z,10.30
2023-04-29T23:47:16.345Z,10.20
2023-04-29T23:52:18.271Z,10.00
2023-04-29T23:57:20.172Z,9.90
